CheckWX is a tool to help pilots better visualize weather data.  It is not intended as a substitute for an official pre-flight weather briefing.

18:35:39 UTC

KMNM METAR
Menominee-Marinette Twin County Airport
Menominee, Michigan, USA
Current

40 mins ago

KMNM 241756Z AUTO 15011KT 10SM CLR 13/04 A2991 RMK AO2 SLP152 T01280039 10144 20000 58025 $
Observed
Apr-24 @ 17:56 UTC
Wind
  • 150° at 11 KTS
Visibility
10 SM
Flight Rules
VFR
Cloud Levels
  • Clear skies
Temperature
13°C / 55°F
Dewpoint
C / 39°F
Humidity
55%
Altimeter
29.91" Hg
Pressure
1012.92 hPa
Previous

2 hours ago

KMNM 241656Z AUTO 19007KT 160V220 10SM CLR 13/03 A2994 RMK AO2 SLP161 T01330033 $
Observed
Apr-24 @ 16:56 UTC
Wind
  • 190° at 7 KTS
Visibility
10 SM
Flight Rules
VFR
Cloud Levels
  • Clear skies
Temperature
13°C / 55°F
Dewpoint
C / 37°F
Humidity
51%
Altimeter
29.94" Hg
Pressure
1013.92 hPa
Previous

3 hours ago

KMNM 241556Z AUTO 19010KT 10SM CLR 12/02 A2996 RMK AO2 SLP169 T01220022 $
Observed
Apr-24 @ 15:56 UTC
Wind
  • 190° at 10 KTS
Visibility
10 SM
Flight Rules
VFR
Cloud Levels
  • Clear skies
Temperature
12°C / 54°F
Dewpoint
C / 36°F
Humidity
51%
Altimeter
29.96" Hg
Pressure
1014.52 hPa